createdAt,value
2022-07-25T00:03:41.979Z,11.68
2022-07-25T00:07:39.979Z,11.32
2022-07-25T00:11:37.891Z,11.80
2022-07-25T00:15:35.021Z,11.95
2022-07-25T00:19:32.104Z,11.25
2022-07-25T00:23:29.331Z,11.05
2022-07-25T00:27:26.616Z,11.13
2022-07-25T00:31:26.191Z,11.50
2022-07-25T00:35:23.273Z,11.52
2022-07-25T00:39:20.363Z,11.98
2022-07-25T00:43:17.432Z,12.77
2022-07-25T00:47:14.499Z,12.73
2022-07-25T00:51:12.086Z,12.00
2022-07-25T00:55:09.953Z,13.63
2022-07-25T00:59:07.292Z,12.93
2022-07-25T01:03:07.134Z,12.75
2022-07-25T01:07:04.586Z,11.82
2022-07-25T01:11:01.937Z,12.00
2022-07-25T01:14:59.232Z,12.18
2022-07-25T01:18:56.449Z,11.73
2022-07-25T01:22:54.682Z,14.07
2022-07-25T01:26:52.026Z,11.88
2022-07-25T01:30:49.516Z,12.98
2022-07-25T01:34:46.545Z,13.15
2022-07-25T01:38:43.709Z,11.90
2022-07-25T01:42:41.716Z,14.70
2022-07-25T01:46:38.794Z,12.18
2022-07-25T01:50:36.004Z,12.50
2022-07-25T01:54:33.085Z,14.40
2022-07-25T01:58:30.197Z,12.18
2022-07-25T02:02:27.504Z,13.20
2022-07-25T02:06:24.584Z,17.42
2022-07-25T02:10:21.570Z,13.00
2022-07-25T02:14:18.721Z,16.60
2022-07-25T02:18:16.370Z,13.52
2022-07-25T02:22:13.391Z,13.32
2022-07-25T02:26:13.217Z,14.93
2022-07-25T02:30:10.911Z,13.45
2022-07-25T02:34:08.500Z,14.23
2022-07-25T02:38:05.794Z,14.40
2022-07-25T02:42:02.952Z,17.73
2022-07-25T02:46:00.212Z,13.93
2022-07-25T02:49:57.482Z,14.93
2022-07-25T02:53:57.904Z,13.07
2022-07-25T02:57:55.707Z,16.23
2022-07-25T03:01:52.757Z,14.25
2022-07-25T03:05:51.959Z,13.52
2022-07-25T03:09:49.194Z,13.38
2022-07-25T03:13:46.763Z,13.95
2022-07-25T03:17:43.929Z,14.00
2022-07-25T03:21:41.054Z,14.13
2022-07-25T03:25:38.168Z,14.70
2022-07-25T03:29:35.336Z,13.88
2022-07-25T03:33:32.366Z,16.02
2022-07-25T03:37:29.552Z,14.50
2022-07-25T03:41:28.010Z,16.73
2022-07-25T03:45:25.774Z,16.63
2022-07-25T03:49:23.065Z,16.08
2022-07-25T03:53:20.073Z,15.13
2022-07-25T03:57:17.130Z,14.98
2022-07-25T04:01:14.375Z,16.02
2022-07-25T04:05:11.587Z,16.20
2022-07-25T04:09:10.877Z,15.68
2022-07-25T04:13:10.095Z,16.23
2022-07-25T04:17:07.255Z,16.40
2022-07-25T04:21:06.392Z,18.73
2022-07-25T04:25:04.553Z,20.25
2022-07-25T04:29:03.701Z,15.52
2022-07-25T04:33:00.861Z,24.08
2022-07-25T04:36:57.871Z,16.35
2022-07-25T04:40:54.992Z,16.02
2022-07-25T04:44:51.990Z,16.42
2022-07-25T04:48:50.526Z,19.67
2022-07-25T04:52:47.783Z,20.73
2022-07-25T04:56:44.826Z,15.93
2022-07-25T05:00:42.043Z,15.85
2022-07-25T05:04:44.795Z,16.88
2022-07-25T05:08:42.413Z,15.25
2022-07-25T05:12:39.573Z,16.67
2022-07-25T05:16:36.656Z,15.38
2022-07-25T05:20:33.778Z,15.85
2022-07-25T05:24:35.197Z,22.33
2022-07-25T05:28:32.281Z,20.25
2022-07-25T05:32:29.387Z,16.10
2022-07-25T05:36:26.392Z,15.73
2022-07-25T05:40:24.347Z,16.17
2022-07-25T05:44:21.418Z,14.38
2022-07-25T05:48:18.598Z,15.95
2022-07-25T05:52:15.721Z,20.55
2022-07-25T05:56:12.704Z,15.15
2022-07-25T06:00:12.817Z,16.42
2022-07-25T06:04:10.348Z,16.92
2022-07-25T06:08:07.412Z,14.40
2022-07-25T06:12:05.081Z,15.65
2022-07-25T06:16:03.408Z,17.05
2022-07-25T06:20:00.777Z,16.17
2022-07-25T06:23:57.823Z,14.15
2022-07-25T06:27:54.813Z,13.45
2022-07-25T06:31:51.948Z,14.38
2022-07-25T06:35:51.245Z,12.15
2022-07-25T06:39:48.362Z,12.52
2022-07-25T06:43:45.345Z,13.23
2022-07-25T06:47:45.003Z,13.02
2022-07-25T06:51:42.016Z,9.73
2022-07-25T06:55:39.180Z,11.52
2022-07-25T06:59:36.335Z,9.93
2022-07-25T07:03:38.356Z,9.80
2022-07-25T07:07:35.524Z,9.43
2022-07-25T07:11:34.858Z,11.93
2022-07-25T07:15:34.385Z,8.60
2022-07-25T07:19:31.705Z,8.10
2022-07-25T07:23:32.313Z,8.20
2022-07-25T07:27:30.082Z,8.43
2022-07-25T07:31:27.146Z,7.55
2022-07-25T07:35:25.467Z,7.13
2022-07-25T07:39:24.587Z,7.63
2022-07-25T07:43:25.039Z,7.90
2022-07-25T07:47:26.104Z,8.52
2022-07-25T07:51:23.193Z,6.93
2022-07-25T07:55:39.768Z,7.47
2022-07-25T07:59:36.895Z,7.45
2022-07-25T08:03:34.107Z,7.00
2022-07-25T08:07:31.276Z,8.48
2022-07-25T08:11:28.288Z,8.15
2022-07-25T08:15:26.445Z,8.60
2022-07-25T08:19:23.431Z,8.40
2022-07-25T08:23:20.643Z,9.23
2022-07-25T08:27:17.721Z,8.38
2022-07-25T08:31:14.855Z,8.32
2022-07-25T08:35:12.038Z,9.38
2022-07-25T08:39:09.049Z,8.73
2022-07-25T08:43:06.315Z,8.30
2022-07-25T08:47:03.793Z,8.00
2022-07-25T08:51:02.722Z,8.30
2022-07-25T08:54:59.897Z,9.27
2022-07-25T08:58:59.020Z,7.93
2022-07-25T09:03:06.542Z,8.20
2022-07-25T09:07:08.021Z,8.70
2022-07-25T09:11:05.554Z,7.72
2022-07-25T09:15:02.637Z,8.15
2022-07-25T09:19:21.329Z,8.85
2022-07-25T09:23:32.179Z,9.45
2022-07-25T09:27:34.475Z,7.78
2022-07-25T09:31:35.256Z,7.45
2022-07-25T09:35:38.343Z,7.88
2022-07-25T09:39:47.384Z,10.25
2022-07-25T09:43:45.619Z,7.60
2022-07-25T09:47:57.559Z,7.93
2022-07-25T09:51:55.294Z,7.47
2022-07-25T09:55:57.151Z,7.50
2022-07-25T09:59:54.666Z,7.68
2022-07-25T10:04:01.237Z,7.95
2022-07-25T10:07:58.791Z,11.80
2022-07-25T10:12:08.678Z,7.68
2022-07-25T10:16:20.531Z,7.88
2022-07-25T10:20:28.696Z,7.80
2022-07-25T10:24:35.021Z,7.65
2022-07-25T10:28:45.376Z,8.00
2022-07-25T10:33:04.497Z,7.55
2022-07-25T10:37:18.529Z,7.70
2022-07-25T10:41:19.297Z,7.60
2022-07-25T10:45:18.350Z,8.45
2022-07-25T10:49:32.265Z,9.13
2022-07-25T10:53:43.955Z,8.93
2022-07-25T10:57:55.012Z,8.68
2022-07-25T11:01:59.227Z,8.48
2022-07-25T11:05:56.342Z,7.80
2022-07-25T11:10:02.348Z,7.65
2022-07-25T11:13:59.520Z,7.35
2022-07-25T11:17:56.796Z,7.45
2022-07-25T11:21:57.805Z,9.48
2022-07-25T11:26:11.577Z,7.68
2022-07-25T11:30:22.121Z,7.80
2022-07-25T11:34:24.543Z,7.45
2022-07-25T11:38:21.676Z,7.90
2022-07-25T11:42:20.200Z,7.40
2022-07-25T11:46:18.561Z,9.57
2022-07-25T11:50:16.070Z,7.25
2022-07-25T11:54:13.861Z,7.63
2022-07-25T11:58:13.333Z,7.53
2022-07-25T12:02:26.580Z,7.78
2022-07-25T12:06:30.031Z,7.95
2022-07-25T12:10:36.380Z,9.07
2022-07-25T12:14:44.013Z,7.28
2022-07-25T12:18:41.501Z,7.70
2022-07-25T12:22:38.633Z,7.32
2022-07-25T12:26:36.079Z,7.03
2022-07-25T12:30:34.324Z,9.68
2022-07-25T12:34:31.624Z,7.95
2022-07-25T12:38:29.203Z,7.63
2022-07-25T12:42:28.915Z,8.05
2022-07-25T12:46:26.051Z,7.25
2022-07-25T12:50:26.007Z,7.70
2022-07-25T12:54:23.226Z,7.50
2022-07-25T12:58:21.241Z,7.55
2022-07-25T13:02:18.624Z,7.80
2022-07-25T13:06:15.794Z,8.93
2022-07-25T13:10:12.979Z,7.05
2022-07-25T13:14:10.117Z,7.18
2022-07-25T13:18:07.482Z,7.25
2022-07-25T13:22:04.508Z,6.90
2022-07-25T13:26:01.729Z,7.43
2022-07-25T13:29:58.736Z,7.03
2022-07-25T13:33:55.795Z,7.47
2022-07-25T13:37:52.850Z,7.13
2022-07-25T13:41:50.315Z,7.35
2022-07-25T13:45:47.425Z,7.10
2022-07-25T13:49:44.532Z,7.00
2022-07-25T13:53:42.596Z,6.97
2022-07-25T13:57:39.713Z,7.80
2022-07-25T14:01:36.895Z,6.30
2022-07-25T14:05:34.745Z,6.35
2022-07-25T14:09:31.693Z,6.50
2022-07-25T14:13:28.656Z,8.50
2022-07-25T14:17:29.947Z,7.15
2022-07-25T14:21:27.375Z,7.22
2022-07-25T14:25:24.475Z,7.43
2022-07-25T14:29:25.947Z,7.00
2022-07-25T14:33:28.023Z,7.18
2022-07-25T14:37:25.276Z,7.25
2022-07-25T14:41:22.619Z,7.75
2022-07-25T14:45:21.968Z,9.05
2022-07-25T14:49:19.375Z,7.78
2022-07-25T14:53:16.503Z,7.57
2022-07-25T14:57:13.664Z,9.98
2022-07-25T15:01:11.500Z,6.97
2022-07-25T15:05:09.064Z,6.32
2022-07-25T15:09:06.801Z,5.55
2022-07-25T15:13:28.676Z,4.75
2022-07-25T15:17:21.124Z,3.83
2022-07-25T15:21:18.234Z,2.80
2022-07-25T15:25:59.628Z,3.35
2022-07-25T15:29:32.215Z,3.40
2022-07-25T15:33:29.452Z,7.40
2022-07-25T15:37:28.134Z,3.50
2022-07-25T15:41:25.199Z,3.50
2022-07-25T15:45:38.025Z,4.05
2022-07-25T15:49:36.991Z,5.90
2022-07-25T15:53:34.045Z,5.57
2022-07-25T15:57:31.332Z,4.30
2022-07-25T16:01:28.384Z,4.80
2022-07-25T16:05:26.305Z,4.80
2022-07-25T16:09:23.880Z,4.90
2022-07-25T16:13:20.948Z,5.32
2022-07-25T16:17:18.403Z,5.10
2022-07-25T16:21:15.401Z,10.05
2022-07-25T16:25:12.678Z,5.63
2022-07-25T16:29:10.415Z,5.47
2022-07-25T16:33:09.274Z,7.35
2022-07-25T16:37:06.334Z,6.05
2022-07-25T16:41:03.476Z,7.25
2022-07-25T16:45:00.477Z,11.27
2022-07-25T16:48:57.607Z,7.53
2022-07-25T16:52:54.947Z,8.18
2022-07-25T16:56:54.820Z,8.15
2022-07-25T17:00:53.589Z,8.05
2022-07-25T17:04:50.598Z,6.88
2022-07-25T17:08:47.652Z,7.30
2022-07-25T17:12:44.621Z,7.20
2022-07-25T17:16:42.001Z,7.40
2022-07-25T17:20:39.019Z,11.57
2022-07-25T17:24:36.918Z,9.07
2022-07-25T17:28:34.988Z,7.72
2022-07-25T17:32:32.058Z,10.32
2022-07-25T17:36:29.174Z,8.10
2022-07-25T17:40:26.492Z,9.02
2022-07-25T17:44:23.418Z,10.73
2022-07-25T17:48:20.447Z,9.65
2022-07-25T17:52:17.997Z,7.82
2022-07-25T17:56:15.081Z,8.50
2022-07-25T18:00:13.736Z,11.25
2022-07-25T18:04:11.357Z,9.43
2022-07-25T18:08:10.464Z,8.15
2022-07-25T18:12:07.767Z,8.13
2022-07-25T18:16:05.347Z,8.80
2022-07-25T18:20:03.913Z,8.07
2022-07-25T18:24:01.007Z,8.52
2022-07-25T18:27:58.041Z,9.10
2022-07-25T18:31:55.013Z,9.55
2022-07-25T18:35:52.189Z,8.48
2022-07-25T18:39:49.178Z,9.52
2022-07-25T18:43:46.636Z,11.60
2022-07-25T18:47:45.227Z,9.25
2022-07-25T18:51:42.297Z,8.27
2022-07-25T18:55:39.417Z,8.48
2022-07-25T18:59:36.605Z,8.95
2022-07-25T19:03:34.954Z,8.20
2022-07-25T19:07:33.629Z,10.35
2022-07-25T19:11:30.733Z,8.55
2022-07-25T19:15:28.566Z,8.60
2022-07-25T19:19:27.010Z,9.13
2022-07-25T19:23:24.260Z,7.85
2022-07-25T19:27:23.899Z,8.65
2022-07-25T19:31:21.096Z,8.90
2022-07-25T19:35:25.847Z,8.82
2022-07-25T19:39:24.604Z,9.27
2022-07-25T19:43:21.744Z,8.80
2022-07-25T19:47:18.827Z,7.97
2022-07-25T19:51:15.847Z,8.93
2022-07-25T19:55:12.944Z,8.13
2022-07-25T19:59:10.187Z,10.80
2022-07-25T20:03:07.300Z,8.52
2022-07-25T20:07:04.537Z,7.82
2022-07-25T20:11:01.587Z,7.70
2022-07-25T20:14:58.602Z,9.40
2022-07-25T20:18:55.777Z,7.82
2022-07-25T20:22:53.364Z,9.55
2022-07-25T20:26:50.521Z,13.15
2022-07-25T20:30:47.617Z,8.43
2022-07-25T20:34:45.431Z,11.45
2022-07-25T20:38:42.453Z,10.70
2022-07-25T20:42:40.991Z,12.52
2022-07-25T20:46:39.115Z,11.00
2022-07-25T20:50:37.670Z,8.77
2022-07-25T20:54:36.770Z,11.27
2022-07-25T20:58:33.928Z,8.82
2022-07-25T21:02:30.957Z,10.45
2022-07-25T21:06:29.236Z,10.18
2022-07-25T21:10:28.335Z,10.23
2022-07-25T21:14:26.827Z,8.80
2022-07-25T21:18:23.827Z,9.40
2022-07-25T21:22:20.986Z,14.10
2022-07-25T21:26:18.831Z,9.65
2022-07-25T21:30:15.955Z,8.15
2022-07-25T21:34:12.962Z,10.70
2022-07-25T21:38:10.031Z,12.32
2022-07-25T21:42:09.973Z,10.07
2022-07-25T21:46:07.125Z,9.45
2022-07-25T21:50:24.826Z,10.50
2022-07-25T21:54:22.176Z,9.50
2022-07-25T21:58:21.607Z,8.32
2022-07-25T22:02:20.067Z,8.55
2022-07-25T22:06:17.134Z,9.43
2022-07-25T22:10:16.786Z,10.32
2022-07-25T22:14:15.664Z,8.52
2022-07-25T22:18:12.717Z,10.02
2022-07-25T22:22:09.836Z,11.15
2022-07-25T22:26:06.824Z,8.68
2022-07-25T22:30:05.733Z,11.52
2022-07-25T22:34:02.878Z,8.85
2022-07-25T22:37:59.921Z,11.70
2022-07-25T22:41:57.029Z,8.27
2022-07-25T22:45:54.069Z,9.30
2022-07-25T22:49:51.172Z,9.00
2022-07-25T22:53:48.220Z,8.75
2022-07-25T22:57:45.202Z,9.82
2022-07-25T23:01:42.279Z,8.10
2022-07-25T23:05:40.704Z,13.77
2022-07-25T23:09:37.926Z,7.93
2022-07-25T23:13:36.471Z,9.40
2022-07-25T23:17:33.615Z,7.88
2022-07-25T23:21:30.688Z,7.25
2022-07-25T23:25:27.759Z,8.98
2022-07-25T23:29:24.845Z,7.82
2022-07-25T23:33:25.998Z,10.40
2022-07-25T23:37:23.111Z,8.07
2022-07-25T23:41:20.379Z,7.88
2022-07-25T23:45:17.396Z,7.55
2022-07-25T23:49:16.127Z,9.27
2022-07-25T23:53:13.287Z,9.18
2022-07-25T23:57:10.757Z,8.38
